No requiere especial atencion con respecto al clima.   -   No hay Alarmas

Informes de METAR cercanos

 

LEXJ - Santander/Parayas, Spain
Distance from station: ESE 6km
Actualización: 17/11/2018 04:00
Despejado
Despejado
 Viento del SSO
Viento: SSO 9 km/h
Temperatura: 17°C
Rocío: 10°C
Humedad: 64%
Barómetro: 1015 hPa
Clouds: Despejado
Visibility: 8 km
2018/11/17 03:00 LEXJ 170300Z AUTO 21005KT 170V250 8000 NCD 17/10 Q1015
LEBB - Bilbao/Sondica, Spain
Distance from station: ESE 80km
Actualización: 17/11/2018 04:00
Despejado
Despejado
 Viento del varies
Viento: varies 4 km/h
Temperatura: 16°C
Rocío: 11°C
Humedad: 72%
Barómetro: 1016 hPa
Clouds: Despejado
Visibility: 10 km
2018/11/17 03:00 LEBB 170300Z AUTO VRB02KT 9999 NCD 16/11 Q1016
 
LEBL - Barcelona Airpor, Spain
Distance from station: ESE 726km
Actualización: 17/11/2018 04:00
Muy nuboso
Muy nuboso
 Viento del NNE
Viento: NNE 11 km/h
Temperatura: 15°C
Rocío: 12°C
Humedad: 82%
Barómetro: 1019 hPa
Clouds: Muy nuboso
Visibility: 10 km
Cloud details: Muy nuboso 1707 m
2018/11/17 03:00 LEBL 170300Z 02006KT 9999 BKN056 15/12 Q1019 NOSIG
LEMD - Madrid/Barajas, Spain
Distance from station: S 325km
Actualización: 17/11/2018 04:00
Muy nuboso
Muy nuboso
 Viento del varies
Viento: varies 4 km/h
Temperatura: 11°C
Rocío: 10°C
Humedad: 94%
Barómetro: 1017 hPa
Clouds: Muy nuboso
Visibility: 10 km
Cloud details: Few Clouds 853 m
Muy nuboso 2286 m
2018/11/17 03:00 LEMD 170300Z VRB02KT 9999 FEW028 BKN075 11/10 Q1017 NOSIG
 
LPPT - Lisbon/Portela, Portugal
Distance from station: SO 663km
Actualización: 17/11/2018 04:00
Few Clouds
Few Clouds
 Viento del E
Viento: E 9 km/h
Temperatura: 13°C
Rocío: 13°C
Humedad: 100%
Barómetro: 1011 hPa
Clouds: Few Clouds
Visibility: 9 km
Cloud details: Few Clouds 61 m
2018/11/17 03:00 LPPT 170300Z 08005KT 9000 FEW002 13/13 Q1011
LECO - La Coruna/Alvedr, Spain
Distance from station: O 349km
Actualización: 17/11/2018 04:00
Despejado
Despejado
 Viento del S
Viento: S 6 km/h
Temperatura: 14°C
Rocío: 10°C
Humedad: 77%
Barómetro: 1012 hPa
Clouds: Despejado
Visibility: 10 km
2018/11/17 03:00 LECO 170300Z AUTO 17003KT 140V200 9999 NCD 14/10 Q1012
 
LEST - Santiago/Labacol, Spain
Distance from station: O 358km
Actualización: 17/11/2018 04:00
Despejado
Despejado
 Viento del SSE
Viento: SSE 19 km/h
Temperatura: 13°C
Rocío: 9°C
Humedad: 77%
Barómetro: 1013 hPa
Resumen: Despejado
Visibility: greater than 10 km
2018/11/17 03:00 LEST 170300Z 15010KT 120V180 CAVOK 13/09 Q1013 NOSIG
EBBR - Brussels International Airport, Belgium
Distance from station: O 1339km
Actualización: 17/11/2018 03:50
Patches of fog, Parcialmente nuboso
Patches of fog, Parcialmente nuboso
 Viento del calm
Viento: Calma
Temperatura: -1°C
Rocío: -1°C
Humedad: 100%
Barómetro: 1028 hPa
Resumen: Patches of Fog
Clouds: Parcialmente nuboso
Visibility: 5 km
2018/11/17 02:50 EBBR 170250Z 00000KT 5000 0500NW R25L/1500U R25R/0600N R01/1600U BCFG NSC M01/M01 Q1028 NOSIG